createdAt,value
2018-11-01T00:00:19.360Z,80.96
2018-11-01T00:00:45.485Z,80.39
2018-11-01T00:01:11.618Z,80.39
2018-11-01T00:01:37.768Z,80.58
2018-11-01T00:02:03.901Z,80.68
2018-11-01T00:02:30.057Z,80.49
2018-11-01T00:02:56.196Z,80.3
2018-11-01T00:03:22.381Z,80.77
2018-11-01T00:03:48.488Z,80.49
2018-11-01T00:04:14.620Z,81.06
2018-11-01T00:04:40.751Z,81.06
2018-11-01T00:05:06.904Z,81.06
2018-11-01T00:05:33.052Z,81.06
2018-11-01T00:05:59.181Z,80.77
2018-11-01T00:06:25.348Z,80.96
2018-11-01T00:06:51.473Z,80.77
2018-11-01T00:07:17.649Z,80.87
2018-11-01T00:07:43.819Z,80.87
2018-11-01T00:08:09.937Z,80.87
2018-11-01T00:08:36.073Z,80.96
2018-11-01T00:09:02.202Z,80.77
2018-11-01T00:09:28.333Z,81.06
2018-11-01T00:09:54.467Z,80.87
2018-11-01T00:10:20.597Z,81.06
2018-11-01T00:10:46.729Z,81.06
2018-11-01T00:11:12.865Z,80.87
2018-11-01T00:11:39.017Z,80.77
2018-11-01T00:12:05.148Z,80.96
2018-11-01T00:12:31.276Z,81.35
2018-11-01T00:12:57.404Z,80.58
2018-11-01T00:13:23.535Z,80.77
2018-11-01T00:13:49.673Z,80.96
2018-11-01T00:14:15.856Z,81.15
2018-11-01T00:14:42.008Z,80.87
2018-11-01T00:15:08.155Z,80.87
2018-11-01T00:15:34.294Z,80.77
2018-11-01T00:16:00.448Z,81.54
2018-11-01T00:16:26.582Z,81.73
2018-11-01T00:16:52.734Z,81.3
2018-11-01T00:17:18.867Z,81.73
2018-11-01T00:17:45.017Z,81.68
2018-11-01T00:18:11.156Z,82.11
2018-11-01T00:18:37.285Z,81.92
2018-11-01T00:19:03.419Z,81.88
2018-11-01T00:19:29.570Z,81.97
2018-11-01T00:19:55.699Z,82.2
2018-11-01T00:20:21.889Z,82.26
2018-11-01T00:20:48.033Z,82.26
2018-11-01T00:21:14.171Z,82.07
2018-11-01T00:21:40.301Z,82.17
2018-11-01T00:22:06.454Z,82.07
2018-11-01T00:22:32.609Z,82.07
2018-11-01T00:22:58.744Z,82.07
2018-11-01T00:23:24.920Z,82.83
2018-11-01T00:23:51.060Z,82.64
2018-11-01T00:24:17.193Z,83.12
2018-11-01T00:24:43.343Z,82.45
2018-11-01T00:25:09.498Z,82.83
2018-11-01T00:25:35.630Z,82.64
2018-11-01T00:26:01.764Z,83.12
2018-11-01T00:26:27.902Z,83.12
2018-11-01T00:26:54.084Z,83.12
2018-11-01T00:27:20.234Z,83.12
2018-11-01T00:27:46.373Z,83.5
2018-11-01T00:28:12.504Z,83.31
2018-11-01T00:28:38.669Z,83.5
2018-11-01T00:29:04.813Z,83.4
2018-11-01T00:29:30.935Z,83.31
2018-11-01T00:29:57.096Z,83.31
2018-11-01T00:30:23.229Z,83.5
2018-11-01T00:30:49.383Z,83.59
2018-11-01T00:31:15.513Z,83.78
2018-11-01T00:31:41.648Z,83.4
2018-11-01T00:32:07.781Z,83.59
2018-11-01T00:32:33.936Z,83.5
2018-11-01T00:33:00.067Z,83.69
2018-11-01T00:33:26.194Z,83.69
2018-11-01T00:33:52.356Z,83.5
2018-11-01T00:34:18.487Z,83.5
2018-11-01T00:34:44.625Z,83.4
2018-11-01T00:35:10.757Z,83.69
2018-11-01T00:35:36.885Z,83.4
2018-11-01T00:36:03.026Z,83.21
2018-11-01T00:36:29.177Z,83.21
2018-11-01T00:36:55.300Z,83.31
2018-11-01T00:37:21.453Z,83.5
2018-11-01T00:37:47.592Z,83.4
2018-11-01T00:38:13.714Z,83.21
2018-11-01T00:38:39.846Z,83.12
2018-11-01T00:39:05.982Z,83.4
2018-11-01T00:39:32.140Z,83.31
2018-11-01T00:39:58.272Z,83.12
2018-11-01T00:40:24.402Z,82.92
2018-11-01T00:40:50.538Z,83.12
2018-11-01T00:41:16.658Z,83.02
2018-11-01T00:41:42.825Z,83.31
2018-11-01T00:42:08.954Z,83.12
2018-11-01T00:42:35.085Z,83.12
2018-11-01T00:43:01.236Z,82.92
2018-11-01T00:43:27.380Z,83.12
2018-11-01T00:43:53.513Z,83.12
2018-11-01T00:44:19.646Z,82.92
2018-11-01T00:44:45.824Z,82.83
2018-11-01T00:45:11.975Z,82.92
2018-11-01T00:45:38.124Z,82.83
2018-11-01T00:46:04.261Z,82.3
2018-11-01T00:46:30.387Z,82.11
2018-11-01T00:46:56.520Z,82.54
2018-11-01T00:47:22.651Z,81.97
2018-11-01T00:47:48.787Z,82.45
2018-11-01T00:48:14.952Z,82.59
2018-11-01T00:48:41.082Z,82.59
2018-11-01T00:49:07.221Z,81.97
2018-11-01T00:49:33.351Z,82.01
2018-11-01T00:49:59.480Z,82.11
2018-11-01T00:50:25.615Z,82.78
2018-11-01T00:50:51.745Z,81.97
2018-11-01T00:51:17.908Z,82.2
2018-11-01T00:51:44.060Z,82.59
2018-11-01T00:52:10.189Z,82.4
2018-11-01T00:52:36.334Z,82.3
2018-11-01T00:53:02.483Z,82.26
2018-11-01T00:53:28.619Z,82.54
2018-11-01T00:53:54.745Z,82.17
2018-11-01T00:54:20.875Z,82.45
2018-11-01T00:54:47.039Z,83.02
2018-11-01T00:55:13.168Z,82.83
2018-11-01T00:55:39.322Z,82.45
2018-11-01T00:56:05.453Z,82.73
2018-11-01T00:56:31.589Z,82.83
2018-11-01T00:56:57.720Z,83.12
2018-11-01T00:57:23.857Z,83.02
2018-11-01T00:57:49.983Z,83.02
2018-11-01T00:58:16.116Z,83.12
2018-11-01T00:58:42.248Z,83.12
2018-11-01T00:59:08.381Z,83.4
2018-11-01T00:59:34.554Z,83.02
2018-11-01T01:00:00.693Z,83.12
2018-11-01T01:00:26.816Z,83.02
2018-11-01T01:00:52.970Z,83.02
2018-11-01T01:01:19.102Z,83.12
2018-11-01T01:01:45.234Z,83.02
2018-11-01T01:02:11.405Z,82.83
2018-11-01T01:02:37.560Z,82.92
2018-11-01T01:03:03.689Z,82.83
2018-11-01T01:03:29.828Z,82.17
2018-11-01T01:03:55.983Z,82.3
2018-11-01T01:04:22.132Z,83.02
2018-11-01T01:04:48.264Z,82.97
2018-11-01T01:05:14.397Z,82.49
2018-11-01T01:05:40.535Z,82.07
2018-11-01T01:06:06.666Z,82.59
2018-11-01T01:06:32.804Z,82.59
2018-11-01T01:06:58.959Z,82.11
2018-11-01T01:07:25.090Z,82.11
2018-11-01T01:07:51.219Z,81.92
2018-11-01T01:08:17.341Z,81.92
2018-11-01T01:08:43.481Z,81.92
2018-11-01T01:09:09.619Z,81.78
2018-11-01T01:09:35.751Z,82.01
2018-11-01T01:10:01.882Z,81.97
2018-11-01T01:10:28.012Z,82.17
2018-11-01T01:10:54.140Z,82.07
2018-11-01T01:11:20.298Z,82.17
2018-11-01T01:11:46.447Z,82.45
2018-11-01T01:12:12.610Z,81.97
2018-11-01T01:12:38.741Z,82.17
2018-11-01T01:13:04.884Z,82.2
2018-11-01T01:13:31.085Z,82.64
2018-11-01T01:13:57.242Z,82.07
2018-11-01T01:14:23.394Z,82.92
2018-11-01T01:14:49.528Z,82.83
2018-11-01T01:15:15.668Z,82.68
2018-11-01T01:15:41.821Z,82.59
2018-11-01T01:16:07.958Z,82.97
2018-11-01T01:16:34.089Z,82.78
2018-11-01T01:17:00.223Z,83.16
2018-11-01T01:17:26.379Z,82.2
2018-11-01T01:17:52.509Z,82.45
2018-11-01T01:18:18.642Z,82.35
2018-11-01T01:18:44.790Z,82.54
2018-11-01T01:19:10.945Z,82.54
2018-11-01T01:19:37.084Z,82.35
2018-11-01T01:20:03.208Z,82.64
2018-11-01T01:20:29.343Z,82.45
2018-11-01T01:20:55.502Z,82.07
2018-11-01T01:21:21.633Z,82.35
2018-11-01T01:21:47.780Z,82.07
2018-11-01T01:22:13.910Z,82.26
2018-11-01T01:22:40.055Z,82.07
2018-11-01T01:23:06.198Z,82.92
2018-11-01T01:23:32.361Z,82.07
2018-11-01T01:23:58.490Z,82.17
2018-11-01T01:24:24.673Z,83.02
2018-11-01T01:24:50.858Z,82.92
2018-11-01T01:25:16.986Z,83.12
2018-11-01T01:25:43.153Z,82.92
2018-11-01T01:26:09.283Z,82.92
2018-11-01T01:26:35.414Z,82.92
2018-11-01T01:27:01.564Z,82.83
2018-11-01T01:27:27.699Z,82.83
2018-11-01T01:27:54.627Z,82.83
2018-11-01T01:28:20.764Z,81.97
2018-11-01T01:28:46.901Z,82.17
2018-11-01T01:29:13.051Z,82.73
2018-11-01T01:29:39.187Z,82.17
2018-11-01T01:30:05.331Z,82.07
2018-11-01T01:30:31.504Z,82.45
2018-11-01T01:30:57.639Z,81.97
2018-11-01T01:31:23.770Z,82.54
2018-11-01T01:31:49.906Z,82.26
2018-11-01T01:32:16.036Z,82.45
2018-11-01T01:32:42.181Z,81.78
2018-11-01T01:33:08.313Z,82.17
2018-11-01T01:33:34.448Z,82.01
2018-11-01T01:34:00.579Z,82.07
2018-11-01T01:34:26.743Z,81.78
2018-11-01T01:34:52.847Z,81.68
2018-11-01T01:35:19.015Z,81.88
2018-11-01T01:35:45.168Z,80.83
2018-11-01T01:36:11.315Z,81.12
2018-11-01T01:36:37.474Z,80.64
2018-11-01T01:37:03.628Z,80.87
2018-11-01T01:37:29.760Z,81.06
2018-11-01T01:37:55.913Z,81.12
2018-11-01T01:38:22.068Z,81.06
2018-11-01T01:38:48.190Z,81.25
2018-11-01T01:39:14.346Z,80.73
2018-11-01T01:39:40.478Z,80.96
2018-11-01T01:40:06.632Z,80.49
2018-11-01T01:40:32.770Z,80.68
2018-11-01T01:40:58.899Z,80.3
2018-11-01T01:41:25.062Z,80.87
2018-11-01T01:41:51.189Z,80.39
2018-11-01T01:42:17.325Z,80.3
2018-11-01T01:42:43.452Z,79.82
2018-11-01T01:43:09.591Z,80.11
2018-11-01T01:43:35.718Z,79.82
2018-11-01T01:44:01.859Z,80.01
2018-11-01T01:44:27.981Z,80.11
2018-11-01T01:44:54.142Z,79.91
2018-11-01T01:45:20.324Z,79.15
2018-11-01T01:45:46.459Z,79.91
2018-11-01T01:46:12.619Z,79.72
2018-11-01T01:46:38.766Z,79.72
2018-11-01T01:47:04.927Z,79.82
2018-11-01T01:47:31.056Z,79.15
2018-11-01T01:47:57.186Z,79.35
2018-11-01T01:48:23.343Z,79.72
2018-11-01T01:48:49.473Z,79.25
2018-11-01T01:49:15.609Z,79.63
2018-11-01T01:49:41.772Z,79.63
2018-11-01T01:50:07.923Z,79.53
2018-11-01T01:50:34.177Z,79.15
2018-11-01T01:51:00.285Z,79.15
2018-11-01T01:51:26.445Z,79.25
2018-11-01T01:51:52.580Z,78.77
2018-11-01T01:52:18.727Z,78.86
2018-11-01T01:52:44.870Z,78.86
2018-11-01T01:53:10.992Z,78.96
2018-11-01T01:53:37.149Z,78.77
2018-11-01T01:54:03.290Z,78.49
2018-11-01T01:54:29.433Z,78.49
2018-11-01T01:54:55.585Z,78.39
2018-11-01T01:55:21.719Z,78.67
2018-11-01T01:55:47.857Z,78.58
2018-11-01T01:56:14.034Z,79.15
2018-11-01T01:56:40.161Z,79.53
2018-11-01T01:57:06.323Z,79.15
2018-11-01T01:57:32.478Z,79.25
2018-11-01T01:57:58.644Z,79.63
2018-11-01T01:58:24.781Z,80.11
2018-11-01T01:58:50.907Z,79.72
2018-11-01T01:59:17.068Z,79.82
2018-11-01T01:59:43.206Z,79.44
2018-11-01T02:00:09.339Z,79.44
2018-11-01T02:00:35.501Z,79.53
2018-11-01T02:01:01.635Z,78.96
2018-11-01T02:01:27.761Z,80.49
2018-11-01T02:01:53.898Z,80.58
2018-11-01T02:02:20.036Z,80.3
2018-11-01T02:02:46.163Z,80.3
2018-11-01T02:03:12.302Z,79.91
2018-11-01T02:03:38.429Z,79.57
2018-11-01T02:04:04.558Z,79.48
2018-11-01T02:04:30.692Z,78.86
2018-11-01T02:04:56.851Z,78.52
2018-11-01T02:05:22.980Z,78.91
2018-11-01T02:05:49.113Z,78.05
2018-11-01T02:06:15.250Z,78.05
2018-11-01T02:06:41.379Z,77.38
2018-11-01T02:07:07.518Z,77.47
2018-11-01T02:07:33.651Z,77.47
2018-11-01T02:07:59.783Z,77.28
2018-11-01T02:08:25.920Z,76.9
2018-11-01T02:08:52.052Z,77.19
2018-11-01T02:09:18.213Z,76.52
2018-11-01T02:09:44.319Z,76.62
2018-11-01T02:10:10.471Z,76.81
2018-11-01T02:10:36.624Z,76.71
2018-11-01T02:11:02.754Z,76.42
2018-11-01T02:11:28.899Z,76.52
2018-11-01T02:11:55.189Z,76.33
2018-11-01T02:12:21.178Z,76.33
2018-11-01T02:12:47.346Z,76.52
2018-11-01T02:13:13.497Z,76.71
2018-11-01T02:13:39.637Z,76.71
2018-11-01T02:14:05.800Z,76.52
2018-11-01T02:14:31.956Z,76.42
2018-11-01T02:14:58.081Z,76.62
2018-11-01T02:15:24.237Z,77.09
2018-11-01T02:15:50.366Z,76.62
2018-11-01T02:16:16.532Z,76.62
2018-11-01T02:16:42.664Z,76.71
2018-11-01T02:17:08.820Z,76.23
2018-11-01T02:17:34.970Z,76.33
2018-11-01T02:18:01.134Z,76.04
2018-11-01T02:18:27.283Z,75.95
2018-11-01T02:18:53.465Z,76.14
2018-11-01T02:19:19.596Z,76.33
2018-11-01T02:19:45.729Z,76.14
2018-11-01T02:20:11.868Z,76.33
2018-11-01T02:20:38.042Z,76.04
2018-11-01T02:21:04.176Z,76.04
2018-11-01T02:21:30.307Z,76.33
2018-11-01T02:21:56.436Z,76.23
2018-11-01T02:22:22.569Z,76.23
2018-11-01T02:22:48.705Z,76.33
2018-11-01T02:23:14.840Z,75.95
2018-11-01T02:23:40.973Z,76.04
2018-11-01T02:24:07.236Z,76.33
2018-11-01T02:24:33.363Z,75.76
2018-11-01T02:24:59.568Z,76.23
2018-11-01T02:25:25.700Z,76.33
2018-11-01T02:25:51.835Z,76.23
2018-11-01T02:26:18.006Z,75.85
2018-11-01T02:26:44.133Z,75.81
2018-11-01T02:27:10.279Z,76.33
2018-11-01T02:27:36.413Z,76.33
2018-11-01T02:28:02.541Z,76.52
2018-11-01T02:28:28.677Z,75.95
2018-11-01T02:28:54.809Z,75.95
2018-11-01T02:29:20.966Z,75.95
2018-11-01T02:29:47.094Z,75.85
2018-11-01T02:30:13.292Z,76.04
2018-11-01T02:30:39.818Z,75.85
2018-11-01T02:31:05.975Z,76.23
2018-11-01T02:31:32.151Z,75.76
2018-11-01T02:31:58.335Z,75.66
2018-11-01T02:32:24.522Z,76.04
2018-11-01T02:32:50.700Z,76.04
2018-11-01T02:33:17.184Z,75.62
2018-11-01T02:33:43.344Z,76.14
2018-11-01T02:34:09.475Z,76.04
2018-11-01T02:34:35.612Z,75.95
2018-11-01T02:35:01.815Z,75.85
2018-11-01T02:35:27.948Z,75.95
2018-11-01T02:35:54.314Z,75.37
2018-11-01T02:36:20.449Z,75.85
2018-11-01T02:36:46.613Z,75.57
2018-11-01T02:37:12.764Z,76.14
2018-11-01T02:37:38.993Z,76.39
2018-11-01T02:38:05.222Z,76.33
2018-11-01T02:38:31.352Z,75.76
2018-11-01T02:38:57.445Z,75.66
2018-11-01T02:39:23.579Z,75.47
2018-11-01T02:39:49.736Z,74.8
2018-11-01T02:40:15.897Z,75.09
2018-11-01T02:40:42.022Z,74.71
2018-11-01T02:41:08.158Z,75.09
2018-11-01T02:41:34.299Z,75.18
2018-11-01T02:42:00.438Z,75.57
2018-11-01T02:42:26.653Z,75.85
2018-11-01T02:42:52.816Z,75.57
2018-11-01T02:43:19.024Z,75.47
2018-11-01T02:43:45.163Z,75.57
2018-11-01T02:44:11.318Z,75.57
2018-11-01T02:44:37.484Z,75.57
2018-11-01T02:45:03.643Z,74.71
2018-11-01T02:45:29.778Z,75.09
2018-11-01T02:45:55.910Z,74.9
2018-11-01T02:46:22.038Z,74.99
2018-11-01T02:46:48.170Z,75.09
2018-11-01T02:47:14.332Z,74.99
2018-11-01T02:47:40.465Z,74.52
2018-11-01T02:48:06.592Z,75.18
2018-11-01T02:48:32.752Z,75.18
2018-11-01T02:48:58.904Z,74.99
2018-11-01T02:49:25.044Z,75.09
2018-11-01T02:49:51.173Z,74.8
2018-11-01T02:50:17.305Z,75.18
2018-11-01T02:50:43.470Z,75.37
2018-11-01T02:51:09.646Z,74.99
2018-11-01T02:51:35.845Z,74.9
2018-11-01T02:52:01.977Z,74.9
2018-11-01T02:52:28.131Z,75.09
2018-11-01T02:52:54.318Z,75.28
2018-11-01T02:53:20.448Z,74.99
2018-11-01T02:53:46.637Z,75.09
2018-11-01T02:54:12.768Z,74.99
2018-11-01T02:54:38.945Z,75.09
2018-11-01T02:55:05.100Z,75.09
2018-11-01T02:55:31.262Z,75.18
2018-11-01T02:55:57.464Z,74.99
2018-11-01T02:56:23.609Z,74.8
2018-11-01T02:56:49.772Z,75.09
2018-11-01T02:57:15.905Z,75.18
2018-11-01T02:57:42.036Z,75.37
2018-11-01T02:58:08.187Z,74.8
2018-11-01T02:58:34.397Z,74.99
2018-11-01T02:59:00.561Z,74.99
2018-11-01T02:59:26.732Z,75.09
2018-11-01T02:59:53.146Z,74.8
2018-11-01T03:00:19.276Z,74.8
2018-11-01T03:00:45.691Z,75.09
2018-11-01T03:01:11.799Z,74.99
2018-11-01T03:01:37.931Z,74.8
2018-11-01T03:02:04.098Z,74.8
2018-11-01T03:02:30.312Z,74.71
2018-11-01T03:02:56.584Z,74.8
2018-11-01T03:03:22.725Z,74.99
2018-11-01T03:03:48.885Z,75.18
2018-11-01T03:04:15.056Z,74.9
2018-11-01T03:04:41.231Z,74.8
2018-11-01T03:05:07.395Z,75.09
2018-11-01T03:05:33.547Z,75.09
2018-11-01T03:05:59.680Z,74.9
2018-11-01T03:06:25.813Z,74.99
2018-11-01T03:06:51.983Z,75.09
2018-11-01T03:07:18.133Z,75.09
2018-11-01T03:07:44.279Z,75.09
2018-11-01T03:08:10.403Z,74.77
2018-11-01T03:08:36.564Z,74.86
2018-11-01T03:09:02.717Z,74.86
2018-11-01T03:09:28.859Z,74.9
2018-11-01T03:09:55.039Z,74.9
2018-11-01T03:10:21.290Z,74.77
2018-11-01T03:10:47.437Z,75.18
2018-11-01T03:11:13.600Z,75.28
2018-11-01T03:11:39.732Z,75.53
2018-11-01T03:12:05.866Z,75.62
2018-11-01T03:12:32.028Z,75.43
2018-11-01T03:12:58.165Z,75.43
2018-11-01T03:13:24.320Z,75.34
2018-11-01T03:13:50.459Z,75.43
2018-11-01T03:14:16.638Z,75.43
2018-11-01T03:14:42.775Z,75.53
2018-11-01T03:15:08.965Z,75.91
2018-11-01T03:15:35.119Z,75.62
2018-11-01T03:16:01.270Z,75.81
2018-11-01T03:16:27.398Z,75.53
2018-11-01T03:16:53.648Z,75.53
2018-11-01T03:17:19.870Z,75.81
2018-11-01T03:17:45.971Z,75.24
2018-11-01T03:18:12.140Z,75.81
2018-11-01T03:18:38.332Z,76.01
2018-11-01T03:19:04.475Z,75.91
2018-11-01T03:19:30.630Z,75.72
2018-11-01T03:19:56.781Z,76.29
2018-11-01T03:20:22.922Z,76.2
2018-11-01T03:20:49.054Z,75.72
2018-11-01T03:21:15.234Z,75.91
2018-11-01T03:21:41.428Z,75.72
2018-11-01T03:22:07.561Z,76.1
2018-11-01T03:22:33.691Z,76.01
2018-11-01T03:22:59.825Z,76.01
2018-11-01T03:23:25.985Z,75.81
2018-11-01T03:23:52.150Z,76.29
2018-11-01T03:24:18.340Z,75.91
2018-11-01T03:24:44.473Z,76.29
2018-11-01T03:25:10.620Z,75.81
2018-11-01T03:25:36.779Z,75.81
2018-11-01T03:26:02.938Z,75.81
2018-11-01T03:26:29.150Z,76.1
2018-11-01T03:26:55.206Z,76.2
2018-11-01T03:27:21.376Z,75.91
2018-11-01T03:27:47.539Z,76.01
2018-11-01T03:28:13.690Z,75.91
2018-11-01T03:28:39.891Z,76.1
2018-11-01T03:29:06.053Z,76.2
2018-11-01T03:29:32.239Z,76.01
2018-11-01T03:29:58.368Z,76.2
2018-11-01T03:30:24.576Z,76.1
2018-11-01T03:30:50.722Z,76.2
2018-11-01T03:31:16.916Z,76.39
2018-11-01T03:31:43.103Z,76.2
2018-11-01T03:32:09.270Z,76.39
2018-11-01T03:32:35.458Z,76.01
2018-11-01T03:33:01.652Z,76.2
2018-11-01T03:33:27.793Z,75.91
2018-11-01T03:33:53.929Z,76.29
2018-11-01T03:34:20.133Z,76.39
2018-11-01T03:34:46.212Z,76.2
2018-11-01T03:35:12.432Z,76.1
2018-11-01T03:35:38.632Z,75.91
2018-11-01T03:36:04.718Z,76.1
2018-11-01T03:36:30.866Z,76.1
2018-11-01T03:36:57.023Z,76.86
2018-11-01T03:37:23.222Z,76.67
2018-11-01T03:37:49.359Z,76.48
2018-11-01T03:38:15.719Z,76.57
2018-11-01T03:38:41.752Z,76.77
2018-11-01T03:39:07.839Z,76.77
2018-11-01T03:39:33.972Z,76.77
2018-11-01T03:40:00.148Z,76.39
2018-11-01T03:40:26.311Z,76.86
2018-11-01T03:40:52.463Z,77.06
2018-11-01T03:41:18.620Z,77.15
2018-11-01T03:41:44.752Z,77.34
2018-11-01T03:42:10.902Z,76.86
2018-11-01T03:42:37.057Z,77.06
2018-11-01T03:43:03.208Z,77.34
2018-11-01T03:43:29.363Z,77.15
2018-11-01T03:43:55.495Z,76.86
2018-11-01T03:44:21.661Z,77.53
2018-11-01T03:44:47.807Z,77.15
2018-11-01T03:45:13.963Z,77.15
2018-11-01T03:45:40.187Z,77.15
2018-11-01T03:46:06.324Z,77.15
2018-11-01T03:46:32.467Z,77.15
2018-11-01T03:46:58.600Z,77.15
2018-11-01T03:47:24.777Z,76.96
2018-11-01T03:47:50.945Z,76.96
2018-11-01T03:48:17.079Z,77.25
2018-11-01T03:48:43.254Z,77.3
2018-11-01T03:49:09.392Z,76.96
2018-11-01T03:49:35.553Z,77.06
2018-11-01T03:50:01.756Z,77.2
2018-11-01T03:50:27.916Z,77.2
2018-11-01T03:50:54.055Z,77.11
2018-11-01T03:51:20.212Z,77.01
2018-11-01T03:51:46.455Z,77.4
2018-11-01T03:52:12.535Z,77.4
2018-11-01T03:52:38.709Z,77.4
2018-11-01T03:53:04.849Z,77.49
2018-11-01T03:53:31.118Z,77.4
2018-11-01T03:53:57.264Z,77.4
2018-11-01T03:54:23.452Z,77.4
2018-11-01T03:54:49.561Z,77.49
2018-11-01T03:55:15.721Z,77.87
2018-11-01T03:55:41.899Z,77.97
2018-11-01T03:56:08.054Z,77.87
2018-11-01T03:56:34.195Z,77.78
2018-11-01T03:57:00.345Z,77.87
2018-11-01T03:57:26.490Z,78.06
2018-11-01T03:57:52.708Z,78.06
2018-11-01T03:58:18.895Z,77.87
2018-11-01T03:58:45.045Z,78.06
2018-11-01T03:59:11.215Z,78.06
2018-11-01T03:59:37.336Z,78.06
2018-11-01T04:00:03.493Z,77.87
2018-11-01T04:00:29.695Z,78.06
2018-11-01T04:00:55.830Z,78.06
2018-11-01T04:01:21.978Z,77.78
2018-11-01T04:01:48.110Z,77.97
2018-11-01T04:02:14.250Z,77.87
2018-11-01T04:02:40.406Z,78.06
2018-11-01T04:03:06.558Z,78.06
2018-11-01T04:03:32.769Z,78.54
2018-11-01T04:03:59.015Z,78.06
2018-11-01T04:04:24.975Z,78.16
2018-11-01T04:04:51.157Z,77.69
2018-11-01T04:05:17.312Z,77.87
2018-11-01T04:05:43.441Z,77.97
2018-11-01T04:06:09.571Z,77.87
2018-11-01T04:06:35.728Z,78.35
2018-11-01T04:07:01.860Z,78.06
2018-11-01T04:07:27.992Z,78.06
2018-11-01T04:07:54.150Z,77.78
2018-11-01T04:08:20.308Z,77.69
2018-11-01T04:08:46.443Z,78.06
2018-11-01T04:09:12.570Z,77.69
2018-11-01T04:09:38.720Z,77.78
2018-11-01T04:10:04.885Z,77.97
2018-11-01T04:10:31.037Z,78.35
2018-11-01T04:10:57.297Z,78.25
2018-11-01T04:11:23.444Z,78.25
2018-11-01T04:11:49.604Z,78.44
2018-11-01T04:12:15.761Z,77.78
2018-11-01T04:12:41.918Z,77.78
2018-11-01T04:13:08.077Z,77.87
2018-11-01T04:13:34.341Z,77.97
2018-11-01T04:14:00.387Z,78.06
2018-11-01T04:14:26.550Z,77.97
2018-11-01T04:14:52.686Z,77.97
2018-11-01T04:15:18.912Z,78.06
2018-11-01T04:15:44.988Z,77.87
2018-11-01T04:16:11.149Z,77.87
2018-11-01T04:16:37.307Z,77.87
2018-11-01T04:17:03.547Z,77.78
2018-11-01T04:17:29.581Z,78.06
2018-11-01T04:17:55.706Z,77.87
2018-11-01T04:18:21.832Z,77.78
2018-11-01T04:18:47.965Z,77.78
2018-11-01T04:19:14.134Z,78.16
2018-11-01T04:19:40.301Z,77.2
2018-11-01T04:20:06.446Z,77.4
2018-11-01T04:20:32.614Z,77.4
2018-11-01T04:20:58.711Z,77.4
2018-11-01T04:21:24.880Z,77.3
2018-11-01T04:21:51.022Z,77.49
2018-11-01T04:22:17.162Z,78.16
2018-11-01T04:22:43.316Z,77.4
2018-11-01T04:23:09.474Z,77.97
2018-11-01T04:23:35.600Z,78.06
2018-11-01T04:24:01.727Z,78.06
2018-11-01T04:24:27.882Z,77.69
2018-11-01T04:24:54.044Z,77.69
2018-11-01T04:25:20.237Z,77.78
2018-11-01T04:25:46.384Z,78.16
2018-11-01T04:26:12.541Z,78.25
2018-11-01T04:26:38.669Z,78.16
2018-11-01T04:27:04.832Z,77.78
2018-11-01T04:27:31.001Z,78.16
2018-11-01T04:27:57.154Z,78.06
2018-11-01T04:28:23.278Z,78.44
2018-11-01T04:28:49.519Z,78.06
2018-11-01T04:29:15.572Z,78.25
2018-11-01T04:29:41.732Z,78.06
2018-11-01T04:30:07.886Z,77.97
2018-11-01T04:30:34.018Z,78.16
2018-11-01T04:31:00.188Z,77.97
2018-11-01T04:31:26.328Z,78.16
2018-11-01T04:31:52.451Z,78.06
2018-11-01T04:32:18.583Z,78.06
2018-11-01T04:32:44.720Z,77.78
2018-11-01T04:33:11.017Z,78.06
2018-11-01T04:33:37.259Z,78.06
2018-11-01T04:34:03.219Z,77.97
2018-11-01T04:34:29.354Z,77.78
2018-11-01T04:34:55.511Z,77.87
2018-11-01T04:35:21.688Z,77.97
2018-11-01T04:35:47.819Z,78.16
2018-11-01T04:36:13.971Z,77.78
2018-11-01T04:36:40.082Z,77.69
2018-11-01T04:37:06.211Z,77.87
2018-11-01T04:37:32.371Z,77.87
2018-11-01T04:37:58.507Z,77.3
2018-11-01T04:38:24.695Z,77.2
2018-11-01T04:38:50.872Z,77.3
2018-11-01T04:39:17.054Z,78.06
2018-11-01T04:39:43.210Z,78.06
2018-11-01T04:40:09.344Z,78.16
2018-11-01T04:40:35.566Z,77.97
2018-11-01T04:41:01.649Z,77.87
2018-11-01T04:41:27.789Z,78.25
2018-11-01T04:41:53.923Z,77.2
2018-11-01T04:42:20.081Z,77.4
2018-11-01T04:42:46.207Z,77.3
2018-11-01T04:43:12.424Z,77.4
2018-11-01T04:43:38.475Z,77.3
2018-11-01T04:44:04.676Z,77.2
2018-11-01T04:44:30.823Z,77.3
2018-11-01T04:44:57.033Z,77.49
2018-11-01T04:45:23.146Z,77.3
2018-11-01T04:45:49.294Z,77.4
2018-11-01T04:46:15.566Z,77.59
2018-11-01T04:46:41.638Z,77.4
2018-11-01T04:47:07.869Z,77.4
2018-11-01T04:47:33.986Z,77.3
2018-11-01T04:48:00.305Z,77.4
2018-11-01T04:48:26.286Z,77.4
2018-11-01T04:48:52.421Z,77.69
2018-11-01T04:49:18.595Z,77.3
2018-11-01T04:49:44.728Z,77.59
2018-11-01T04:50:10.855Z,77.59
2018-11-01T04:50:37.012Z,77.4
2018-11-01T04:51:03.139Z,77.2
2018-11-01T04:51:29.292Z,77.59
2018-11-01T04:51:55.432Z,77.11
2018-11-01T04:52:21.581Z,77.01
2018-11-01T04:52:47.714Z,76.92
2018-11-01T04:53:13.842Z,77.01
2018-11-01T04:53:39.982Z,77.4
2018-11-01T04:54:06.118Z,77.4
2018-11-01T04:54:32.273Z,77.49
2018-11-01T04:54:58.401Z,77.4
2018-11-01T04:55:24.560Z,77.3
2018-11-01T04:55:50.720Z,77.11
2018-11-01T04:56:16.849Z,77.01
2018-11-01T04:56:42.976Z,77.11
2018-11-01T04:57:09.117Z,77.49
2018-11-01T04:57:35.246Z,77.4
2018-11-01T04:58:01.400Z,77.2
2018-11-01T04:58:27.578Z,77.11
2018-11-01T04:58:53.730Z,77.2
2018-11-01T04:59:19.866Z,77.4
2018-11-01T04:59:46.001Z,77.49
2018-11-01T05:00:12.155Z,77.59
2018-11-01T05:00:38.286Z,77.59
2018-11-01T05:01:04.412Z,77.4
2018-11-01T05:01:30.553Z,77.4
2018-11-01T05:01:56.675Z,77.4
2018-11-01T05:02:22.802Z,76.92
2018-11-01T05:02:48.938Z,77.2
2018-11-01T05:03:15.072Z,76.54
2018-11-01T05:03:41.247Z,76.44
2018-11-01T05:04:07.373Z,77.2
2018-11-01T05:04:33.508Z,76.92
2018-11-01T05:04:59.704Z,76.92
2018-11-01T05:05:25.793Z,77.11
2018-11-01T05:05:51.927Z,77.01
2018-11-01T05:06:18.085Z,77.2
2018-11-01T05:06:44.293Z,77.2
2018-11-01T05:07:10.357Z,76.92
2018-11-01T05:07:36.492Z,76.64
2018-11-01T05:08:02.659Z,76.54
2018-11-01T05:08:28.782Z,76.64
2018-11-01T05:08:54.923Z,76.44
2018-11-01T05:09:21.056Z,76.25
2018-11-01T05:09:47.197Z,76.44
2018-11-01T05:10:13.322Z,76.64
2018-11-01T05:10:39.478Z,76.44
2018-11-01T05:11:05.610Z,76.44
2018-11-01T05:11:31.745Z,76.54
2018-11-01T05:11:57.898Z,77.2
2018-11-01T05:12:24.025Z,77.11
2018-11-01T05:12:50.230Z,77.11
2018-11-01T05:13:16.352Z,76.44
2018-11-01T05:13:42.475Z,76.64
2018-11-01T05:14:08.619Z,76.64
2018-11-01T05:14:34.737Z,76.54
2018-11-01T05:15:00.939Z,76.64
2018-11-01T05:15:27.091Z,76.54
2018-11-01T05:15:53.177Z,76.73
2018-11-01T05:16:19.314Z,76.73
2018-11-01T05:16:45.448Z,76.44
2018-11-01T05:17:11.583Z,76.35
2018-11-01T05:17:37.728Z,76.54
2018-11-01T05:18:03.866Z,76.73
2018-11-01T05:18:30.003Z,76.44
2018-11-01T05:18:56.159Z,77.2
2018-11-01T05:19:22.304Z,77.2
2018-11-01T05:19:48.435Z,77.01
2018-11-01T05:20:14.607Z,76.92
2018-11-01T05:20:40.765Z,77.49
2018-11-01T05:21:06.852Z,77.2
2018-11-01T05:21:33.000Z,77.11
2018-11-01T05:21:59.130Z,76.92
2018-11-01T05:22:25.264Z,77.11
2018-11-01T05:22:51.402Z,76.92
2018-11-01T05:23:17.539Z,76.92
2018-11-01T05:23:43.668Z,77.11
2018-11-01T05:24:09.804Z,77.11
2018-11-01T05:24:35.978Z,76.92
2018-11-01T05:25:02.114Z,77.01
2018-11-01T05:25:28.277Z,76.92
2018-11-01T05:25:54.566Z,77.3
2018-11-01T05:26:20.554Z,76.73
2018-11-01T05:26:46.687Z,76.54
2018-11-01T05:27:12.823Z,76.73
2018-11-01T05:27:38.953Z,76.64
2018-11-01T05:28:05.107Z,76.73
2018-11-01T05:28:31.259Z,76.44
2018-11-01T05:28:57.382Z,76.82
2018-11-01T05:29:23.543Z,76.82
2018-11-01T05:29:49.666Z,76.64
2018-11-01T05:30:15.806Z,76.54
2018-11-01T05:30:41.933Z,76.73
2018-11-01T05:31:08.066Z,76.64
2018-11-01T05:31:34.195Z,76.73
2018-11-01T05:32:00.334Z,76.44
2018-11-01T05:32:26.465Z,76.35
2018-11-01T05:32:52.593Z,76.06
2018-11-01T05:33:18.740Z,76.35
2018-11-01T05:33:44.873Z,76.44
2018-11-01T05:34:11.054Z,76.25
2018-11-01T05:34:37.162Z,76.35
2018-11-01T05:35:03.296Z,75.78
2018-11-01T05:35:29.453Z,75.87
2018-11-01T05:35:55.585Z,75.96
2018-11-01T05:36:21.740Z,76.06
2018-11-01T05:36:47.868Z,76.25
2018-11-01T05:37:14.030Z,76.54
2018-11-01T05:37:40.177Z,76.73
2018-11-01T05:38:06.358Z,76.54
2018-11-01T05:38:32.463Z,76.44